createdAt,value
2022-08-27T00:00:17.939Z,20.38
2022-08-27T00:02:45.708Z,20.38
2022-08-27T00:05:14.761Z,20.39
2022-08-27T00:07:42.864Z,20.40
2022-08-27T00:10:17.300Z,20.41
2022-08-27T00:12:44.019Z,20.39
2022-08-27T00:15:11.743Z,20.39
2022-08-27T00:17:46.561Z,20.39
2022-08-27T00:20:15.586Z,20.39
2022-08-27T00:22:42.389Z,20.39
2022-08-27T00:25:09.400Z,20.39
2022-08-27T00:27:36.740Z,20.40
2022-08-27T00:30:05.649Z,20.40
2022-08-27T00:32:32.195Z,20.40
2022-08-27T00:34:58.776Z,20.39
2022-08-27T00:37:25.428Z,20.41
2022-08-27T00:39:52.167Z,20.38
2022-08-27T00:42:18.721Z,20.38
2022-08-27T00:44:45.273Z,20.38
2022-08-27T00:47:22.882Z,20.37
2022-08-27T00:49:54.476Z,20.37
2022-08-27T00:52:31.727Z,20.35
2022-08-27T00:55:09.239Z,20.33
2022-08-27T00:57:39.018Z,20.30
2022-08-27T01:00:12.153Z,20.28
2022-08-27T01:02:38.850Z,20.25
2022-08-27T01:05:11.936Z,20.25
2022-08-27T01:07:41.473Z,20.25
2022-08-27T01:10:14.031Z,20.26
2022-08-27T01:12:40.642Z,20.24
2022-08-27T01:15:14.938Z,20.23
2022-08-27T01:17:47.880Z,20.21
2022-08-27T01:20:19.818Z,20.21
2022-08-27T01:22:53.276Z,20.20
2022-08-27T01:25:21.595Z,20.18
2022-08-27T01:27:48.308Z,20.15
2022-08-27T01:30:18.622Z,20.14
2022-08-27T01:32:46.397Z,20.13
2022-08-27T01:35:16.179Z,20.13
2022-08-27T01:37:45.667Z,20.11
2022-08-27T01:40:16.856Z,20.09
2022-08-27T01:42:47.685Z,20.08
2022-08-27T01:45:21.233Z,20.08
2022-08-27T01:47:47.780Z,20.09
2022-08-27T01:50:21.738Z,20.08
2022-08-27T01:52:49.451Z,20.05
2022-08-27T01:55:19.595Z,20.03
2022-08-27T01:57:46.877Z,20.01
2022-08-27T02:00:20.765Z,19.99
2022-08-27T02:02:48.093Z,19.96
2022-08-27T02:05:15.509Z,19.94
2022-08-27T02:07:42.540Z,19.91
2022-08-27T02:10:13.050Z,19.91
2022-08-27T02:12:39.592Z,19.92
2022-08-27T02:15:06.926Z,19.92
2022-08-27T02:17:34.332Z,19.90
2022-08-27T02:20:00.924Z,19.86
2022-08-27T02:22:28.237Z,19.84
2022-08-27T02:24:54.706Z,19.83
2022-08-27T02:27:21.377Z,19.80
2022-08-27T02:29:48.978Z,19.80
2022-08-27T02:32:17.620Z,19.78
2022-08-27T02:34:50.595Z,19.76
2022-08-27T02:37:17.213Z,19.75
2022-08-27T02:39:46.065Z,19.76
2022-08-27T02:42:12.744Z,19.76
2022-08-27T02:44:39.533Z,19.75
2022-08-27T02:47:06.993Z,19.76
2022-08-27T02:49:34.220Z,19.77
2022-08-27T02:52:00.758Z,19.76
2022-08-27T02:54:27.704Z,19.75
2022-08-27T02:56:55.164Z,19.73
2022-08-27T02:59:21.945Z,19.72
2022-08-27T03:01:49.133Z,19.73
2022-08-27T03:04:16.569Z,19.74
2022-08-27T03:06:43.073Z,19.73
2022-08-27T03:09:10.491Z,19.73
2022-08-27T03:11:37.331Z,19.73
2022-08-27T03:14:03.976Z,19.72
2022-08-27T03:16:34.508Z,19.72
2022-08-27T03:19:01.181Z,19.70
2022-08-27T03:21:27.746Z,19.67
2022-08-27T03:23:54.278Z,19.65
2022-08-27T03:26:22.263Z,19.64
2022-08-27T03:28:48.713Z,19.61
2022-08-27T03:31:22.579Z,19.58
2022-08-27T03:33:49.107Z,19.54
2022-08-27T03:36:15.587Z,19.54
2022-08-27T03:38:42.085Z,19.52
2022-08-27T03:41:08.646Z,19.52
2022-08-27T03:43:35.601Z,19.50
2022-08-27T03:46:02.524Z,19.51
2022-08-27T03:48:31.769Z,19.49
2022-08-27T03:50:58.422Z,19.50
2022-08-27T03:53:25.949Z,19.49
2022-08-27T03:55:52.567Z,19.48
2022-08-27T03:58:19.133Z,19.47
2022-08-27T04:00:45.950Z,19.45
2022-08-27T04:03:14.102Z,19.45
2022-08-27T04:05:42.523Z,19.45
2022-08-27T04:08:12.397Z,19.46
2022-08-27T04:10:40.284Z,19.46
2022-08-27T04:13:06.857Z,19.46
2022-08-27T04:15:33.525Z,19.46
2022-08-27T04:18:00.172Z,19.45
2022-08-27T04:20:35.764Z,19.45
2022-08-27T04:23:03.608Z,19.46
2022-08-27T04:25:30.195Z,19.46
2022-08-27T04:27:56.956Z,19.46
2022-08-27T04:30:23.704Z,19.45
2022-08-27T04:32:50.703Z,19.41
2022-08-27T04:35:17.603Z,19.42
2022-08-27T04:37:44.397Z,19.41
2022-08-27T04:40:12.456Z,19.41
2022-08-27T04:42:39.032Z,19.39
2022-08-27T04:45:06.321Z,19.37
2022-08-27T04:47:33.186Z,19.38
2022-08-27T04:49:59.686Z,19.36
2022-08-27T04:52:27.042Z,19.36
2022-08-27T04:54:53.936Z,19.37
2022-08-27T04:57:21.006Z,19.36
2022-08-27T04:59:48.019Z,19.37
2022-08-27T05:02:14.692Z,19.37
2022-08-27T05:04:41.314Z,19.35
2022-08-27T05:07:09.532Z,19.33
2022-08-27T05:09:36.316Z,19.32
2022-08-27T05:12:03.340Z,19.32
2022-08-27T05:14:30.444Z,19.33
2022-08-27T05:17:00.377Z,19.32
2022-08-27T05:19:27.426Z,19.35
2022-08-27T05:21:54.460Z,19.36
2022-08-27T05:24:21.745Z,19.38
2022-08-27T05:26:49.745Z,19.40
2022-08-27T05:29:16.916Z,19.41
2022-08-27T05:31:43.880Z,19.42
2022-08-27T05:34:19.029Z,19.41
2022-08-27T05:36:53.303Z,19.43
2022-08-27T05:39:19.984Z,19.44
2022-08-27T05:41:46.550Z,19.45
2022-08-27T05:44:39.721Z,19.45
2022-08-27T05:46:59.869Z,19.45
2022-08-27T05:49:26.526Z,19.46
2022-08-27T05:51:53.144Z,19.47
2022-08-27T05:54:20.205Z,19.48
2022-08-27T05:56:49.349Z,19.48
2022-08-27T05:59:34.587Z,19.49
2022-08-27T06:02:02.351Z,19.52
2022-08-27T06:04:29.434Z,19.52
2022-08-27T06:06:56.452Z,19.55
2022-08-27T06:09:25.961Z,19.57
2022-08-27T06:11:58.054Z,19.58
2022-08-27T06:14:25.043Z,19.59
2022-08-27T06:16:51.976Z,19.59
2022-08-27T06:19:18.598Z,19.58
2022-08-27T06:21:45.781Z,19.59
2022-08-27T06:24:13.021Z,19.58
2022-08-27T06:26:42.364Z,19.59
2022-08-27T06:29:09.957Z,19.62
2022-08-27T06:31:38.696Z,19.63
2022-08-27T06:34:08.610Z,19.61
2022-08-27T06:36:42.267Z,19.60
2022-08-27T06:39:13.265Z,19.61
2022-08-27T06:41:41.121Z,19.61
2022-08-27T06:44:11.544Z,19.63
2022-08-27T06:46:38.805Z,19.63
2022-08-27T06:49:06.653Z,19.60
2022-08-27T06:51:35.445Z,19.59
2022-08-27T06:54:06.377Z,19.57
2022-08-27T06:56:33.628Z,19.56
2022-08-27T06:59:03.313Z,19.55
2022-08-27T07:01:36.502Z,19.55
2022-08-27T07:04:06.582Z,19.57
2022-08-27T07:06:34.735Z,19.56
2022-08-27T07:09:01.758Z,19.54
2022-08-27T07:11:31.862Z,19.53
2022-08-27T07:13:59.440Z,19.55
2022-08-27T07:16:28.065Z,19.57
2022-08-27T07:19:03.902Z,19.57
2022-08-27T07:21:32.187Z,19.53
2022-08-27T07:24:04.608Z,19.53
2022-08-27T07:26:34.656Z,19.53
2022-08-27T07:29:01.645Z,19.54
2022-08-27T07:31:28.173Z,19.54
2022-08-27T07:33:55.163Z,19.55
2022-08-27T07:36:22.527Z,19.57
2022-08-27T07:38:56.963Z,19.61
2022-08-27T07:41:32.671Z,19.67
2022-08-27T07:44:25.977Z,19.73
2022-08-27T07:46:57.371Z,19.78
2022-08-27T07:49:25.509Z,19.81
2022-08-27T07:51:52.386Z,19.82
2022-08-27T07:54:21.581Z,19.85
2022-08-27T07:56:55.330Z,19.86
2022-08-27T07:59:24.681Z,19.87
2022-08-27T08:01:51.837Z,19.87
2022-08-27T08:04:20.425Z,19.90
2022-08-27T08:06:47.201Z,19.95
2022-08-27T08:09:13.746Z,19.97
2022-08-27T08:11:40.363Z,19.98
2022-08-27T08:14:06.898Z,19.96
2022-08-27T08:16:33.491Z,19.94
2022-08-27T08:19:02.890Z,19.93
2022-08-27T08:21:30.598Z,19.98
2022-08-27T08:23:57.136Z,19.98
2022-08-27T08:26:23.966Z,19.84
2022-08-27T08:28:50.539Z,19.76
2022-08-27T08:31:17.183Z,19.62
2022-08-27T08:33:43.769Z,19.49
2022-08-27T08:36:13.887Z,19.45
2022-08-27T08:38:41.640Z,19.36
2022-08-27T08:41:36.969Z,19.36
2022-08-27T08:44:12.771Z,19.36
2022-08-27T08:47:09.985Z,19.30
2022-08-27T08:49:43.417Z,19.30
2022-08-27T08:52:31.120Z,19.33
2022-08-27T08:55:15.277Z,19.35
2022-08-27T08:58:20.148Z,19.40
2022-08-27T09:00:57.513Z,19.44
2022-08-27T09:03:24.518Z,19.50
2022-08-27T09:06:02.680Z,19.57
2022-08-27T09:08:40.492Z,19.64
2022-08-27T09:11:39.295Z,19.68
2022-08-27T09:14:17.962Z,19.71
2022-08-27T09:16:44.481Z,19.71
2022-08-27T09:19:12.962Z,19.71
2022-08-27T09:22:14.940Z,19.74
2022-08-27T09:24:52.613Z,19.76
2022-08-27T09:27:20.929Z,19.82
2022-08-27T09:29:55.697Z,19.84
2022-08-27T09:32:28.408Z,19.84
2022-08-27T09:34:59.976Z,19.91
2022-08-27T09:37:34.056Z,19.93
2022-08-27T09:40:13.717Z,19.94
2022-08-27T09:42:53.321Z,19.96
2022-08-27T09:45:23.366Z,19.99
2022-08-27T09:47:54.126Z,19.99
2022-08-27T09:50:31.519Z,20.01
2022-08-27T09:53:00.035Z,19.99
2022-08-27T09:55:40.585Z,20.01
2022-08-27T09:58:15.968Z,20.04
2022-08-27T10:00:42.755Z,20.05
2022-08-27T10:03:10.893Z,20.07
2022-08-27T10:05:43.585Z,20.10
2022-08-27T10:08:41.727Z,20.09
2022-08-27T10:11:19.128Z,20.07
2022-08-27T10:14:15.852Z,20.01
2022-08-27T10:17:14.867Z,19.99
2022-08-27T10:20:12.122Z,19.96
2022-08-27T10:23:05.461Z,19.90
2022-08-27T10:25:54.636Z,19.84
2022-08-27T10:28:40.870Z,19.83
2022-08-27T10:31:17.783Z,19.83
2022-08-27T10:33:54.131Z,19.81
2022-08-27T10:36:38.077Z,19.80
2022-08-27T10:39:23.748Z,19.77
2022-08-27T10:42:08.785Z,19.77
2022-08-27T10:45:04.350Z,19.78
2022-08-27T10:47:52.166Z,19.78
2022-08-27T10:50:28.456Z,19.79
2022-08-27T10:53:08.509Z,19.82
2022-08-27T10:55:42.175Z,19.82
2022-08-27T10:58:29.243Z,19.85
2022-08-27T11:01:25.966Z,19.89
2022-08-27T11:04:18.501Z,19.91
2022-08-27T11:07:07.153Z,19.93
2022-08-27T11:09:56.620Z,19.96
2022-08-27T11:12:42.478Z,19.94
2022-08-27T11:15:44.181Z,19.92
2022-08-27T11:18:37.247Z,19.97
2022-08-27T11:21:34.604Z,19.99
2022-08-27T11:24:35.292Z,20.01
2022-08-27T11:27:05.787Z,20.03
2022-08-27T11:29:38.809Z,20.04
2022-08-27T11:32:31.504Z,20.03
2022-08-27T11:35:01.977Z,20.05
2022-08-27T11:37:48.836Z,20.04
2022-08-27T11:40:30.204Z,20.03
2022-08-27T11:43:04.709Z,20.07
2022-08-27T11:45:38.360Z,20.10
2022-08-27T11:48:23.928Z,20.11
2022-08-27T11:51:00.762Z,20.11
2022-08-27T11:53:52.067Z,20.10
2022-08-27T11:56:33.415Z,20.20
2022-08-27T11:59:25.108Z,20.27
2022-08-27T12:01:55.630Z,20.29
2022-08-27T12:04:42.536Z,20.37
2022-08-27T12:07:15.015Z,20.43
2022-08-27T12:09:56.343Z,20.50
2022-08-27T12:12:52.762Z,20.48
2022-08-27T12:15:46.810Z,20.49
2022-08-27T12:18:32.480Z,20.46
2022-08-27T12:21:11.093Z,20.49
2022-08-27T12:24:10.142Z,20.48
2022-08-27T12:26:43.287Z,20.47
2022-08-27T12:29:29.232Z,20.50
2022-08-27T12:32:04.618Z,20.53
2022-08-27T12:34:43.195Z,20.59
2022-08-27T12:37:11.796Z,20.61
2022-08-27T12:39:40.334Z,20.60
2022-08-27T12:42:15.945Z,20.66
2022-08-27T12:44:42.399Z,20.78
2022-08-27T12:47:16.962Z,20.85
2022-08-27T12:49:58.990Z,20.92
2022-08-27T12:52:56.300Z,20.98
2022-08-27T12:55:29.787Z,21.05
2022-08-27T12:58:04.119Z,21.21
2022-08-27T13:00:48.354Z,21.28
2022-08-27T13:03:35.504Z,21.39
2022-08-27T13:06:02.139Z,21.52
2022-08-27T13:08:36.225Z,21.63
2022-08-27T13:11:33.188Z,21.64
2022-08-27T13:14:12.143Z,21.62
2022-08-27T13:16:45.745Z,21.59
2022-08-27T13:19:24.134Z,21.60
2022-08-27T13:21:53.995Z,21.63
2022-08-27T13:24:34.295Z,21.61
2022-08-27T13:27:03.996Z,21.58
2022-08-27T13:29:31.235Z,21.58
2022-08-27T13:31:59.352Z,21.50
2022-08-27T13:34:30.349Z,21.45
2022-08-27T13:37:05.971Z,21.41
2022-08-27T13:39:38.165Z,21.38
2022-08-27T13:42:07.475Z,21.38
2022-08-27T13:44:37.516Z,21.37
2022-08-27T13:47:18.181Z,21.40
2022-08-27T13:49:44.989Z,21.48
2022-08-27T13:52:36.600Z,21.54
2022-08-27T13:55:07.921Z,21.59
2022-08-27T13:57:47.675Z,21.55
2022-08-27T14:00:18.906Z,21.54
2022-08-27T14:02:54.172Z,21.51
2022-08-27T14:05:22.834Z,21.52
2022-08-27T14:07:55.816Z,21.50
2022-08-27T14:10:38.093Z,21.45
2022-08-27T14:13:18.199Z,21.41
2022-08-27T14:15:49.982Z,21.44
2022-08-27T14:18:58.421Z,21.49
2022-08-27T14:21:22.793Z,21.46
2022-08-27T14:23:50.056Z,21.47
2022-08-27T14:26:17.458Z,21.51
2022-08-27T14:28:44.949Z,21.56
2022-08-27T14:31:12.171Z,21.65
2022-08-27T14:33:39.151Z,21.74
2022-08-27T14:36:06.400Z,21.82
2022-08-27T14:38:39.500Z,21.85
2022-08-27T14:41:08.100Z,21.86
2022-08-27T14:43:34.731Z,21.82
2022-08-27T14:46:03.002Z,21.76
2022-08-27T14:48:32.425Z,21.74
2022-08-27T14:51:02.380Z,21.75
2022-08-27T14:53:28.975Z,21.76
2022-08-27T14:55:58.830Z,21.76
2022-08-27T14:58:25.728Z,21.77
2022-08-27T15:00:52.353Z,21.80
2022-08-27T15:03:19.890Z,21.85
2022-08-27T15:05:46.403Z,21.88
2022-08-27T15:08:15.861Z,21.88
2022-08-27T15:10:42.752Z,21.88
2022-08-27T15:13:11.310Z,21.86
2022-08-27T15:15:38.772Z,21.87
2022-08-27T15:18:05.842Z,21.92
2022-08-27T15:20:33.033Z,21.98
2022-08-27T15:22:59.653Z,22.06
2022-08-27T15:25:26.704Z,22.15
2022-08-27T15:27:54.175Z,22.22
2022-08-27T15:30:26.122Z,22.23
2022-08-27T15:32:53.079Z,22.17
2022-08-27T15:35:23.259Z,22.15
2022-08-27T15:37:49.825Z,22.22
2022-08-27T15:40:18.600Z,22.24
2022-08-27T15:42:48.795Z,22.21
2022-08-27T15:45:15.394Z,22.21
2022-08-27T15:47:41.935Z,22.20
2022-08-27T15:50:09.002Z,22.16
2022-08-27T15:52:41.294Z,22.09
2022-08-27T15:55:19.733Z,22.05
2022-08-27T15:57:46.539Z,22.02
2022-08-27T16:00:13.634Z,21.96
2022-08-27T16:02:41.785Z,21.92
2022-08-27T16:05:10.292Z,21.87
2022-08-27T16:07:36.885Z,21.83
2022-08-27T16:10:04.671Z,21.84
2022-08-27T16:12:31.246Z,21.83
2022-08-27T16:14:57.991Z,21.84
2022-08-27T16:17:26.525Z,21.86
2022-08-27T16:19:53.464Z,21.91
2022-08-27T16:22:20.298Z,21.94
2022-08-27T16:24:46.808Z,21.98
2022-08-27T16:27:13.287Z,22.03
2022-08-27T16:29:39.729Z,22.09
2022-08-27T16:32:11.312Z,22.13
2022-08-27T16:34:39.182Z,22.22
2022-08-27T16:37:05.726Z,22.29
2022-08-27T16:39:35.422Z,22.36
2022-08-27T16:42:04.808Z,22.69
2022-08-27T16:44:31.926Z,22.87
2022-08-27T16:46:58.474Z,22.85
2022-08-27T16:49:43.413Z,22.69
2022-08-27T16:52:10.081Z,22.52
2022-08-27T16:54:37.012Z,22.39
2022-08-27T16:57:04.575Z,22.30
2022-08-27T16:59:31.108Z,22.24
2022-08-27T17:01:57.717Z,22.14
2022-08-27T17:04:31.185Z,22.05
2022-08-27T17:06:59.117Z,21.97
2022-08-27T17:09:26.268Z,21.92
2022-08-27T17:11:57.048Z,21.88
2022-08-27T17:14:24.407Z,21.84
2022-08-27T17:16:53.909Z,21.84
2022-08-27T17:19:22.341Z,21.84
2022-08-27T17:21:50.585Z,21.84
2022-08-27T17:24:17.556Z,21.83
2022-08-27T17:26:44.303Z,21.83
2022-08-27T17:29:11.018Z,21.83
2022-08-27T17:31:40.376Z,21.83
2022-08-27T17:34:12.066Z,21.82
2022-08-27T17:36:38.641Z,21.73
2022-08-27T17:39:05.199Z,21.64
2022-08-27T17:41:36.668Z,21.58
2022-08-27T17:44:09.503Z,21.51
2022-08-27T17:46:36.012Z,21.43
2022-08-27T17:49:02.876Z,21.38
2022-08-27T17:51:29.653Z,21.31
2022-08-27T17:54:01.548Z,21.26
2022-08-27T17:56:29.185Z,21.21
2022-08-27T17:58:56.152Z,21.15
2022-08-27T18:01:28.736Z,21.12
2022-08-27T18:03:56.721Z,21.09
2022-08-27T18:06:24.262Z,21.09
2022-08-27T18:08:51.064Z,21.07
2022-08-27T18:11:18.082Z,21.05
2022-08-27T18:13:48.067Z,21.03
2022-08-27T18:16:16.838Z,21.00
2022-08-27T18:18:43.434Z,20.99
2022-08-27T18:21:10.140Z,20.98
2022-08-27T18:23:37.108Z,20.95
2022-08-27T18:26:05.430Z,20.93
2022-08-27T18:28:34.049Z,20.90
2022-08-27T18:31:03.721Z,20.86
2022-08-27T18:33:33.217Z,20.80
2022-08-27T18:35:59.748Z,20.76
2022-08-27T18:38:26.811Z,20.70
2022-08-27T18:40:54.718Z,20.65
2022-08-27T18:43:26.843Z,20.59
2022-08-27T18:45:53.384Z,20.55
2022-08-27T18:48:22.469Z,20.49
2022-08-27T18:50:55.562Z,20.45
2022-08-27T18:53:22.194Z,20.41
2022-08-27T18:55:50.532Z,20.39
2022-08-27T18:58:18.225Z,20.36
2022-08-27T19:00:50.400Z,20.34
2022-08-27T19:03:24.887Z,20.31
2022-08-27T19:05:54.945Z,20.29
2022-08-27T19:08:23.008Z,20.24
2022-08-27T19:10:49.524Z,20.19
2022-08-27T19:13:16.403Z,20.11
2022-08-27T19:15:49.703Z,20.04
2022-08-27T19:18:18.008Z,19.96
2022-08-27T19:20:44.898Z,19.87
2022-08-27T19:23:11.399Z,19.80
2022-08-27T19:25:37.928Z,19.73
2022-08-27T19:28:04.565Z,19.69
2022-08-27T19:30:31.679Z,19.63
2022-08-27T19:32:58.536Z,19.58
2022-08-27T19:35:25.427Z,19.52
2022-08-27T19:37:53.005Z,19.48
2022-08-27T19:40:22.002Z,19.45
2022-08-27T19:42:49.606Z,19.42
2022-08-27T19:45:16.274Z,19.42
2022-08-27T19:47:50.323Z,19.43
2022-08-27T19:50:17.365Z,19.43
2022-08-27T19:52:44.197Z,19.42
2022-08-27T19:55:14.108Z,19.39
2022-08-27T19:57:43.314Z,19.34
2022-08-27T20:00:12.594Z,19.28
2022-08-27T20:02:39.742Z,19.25
2022-08-27T20:05:23.003Z,19.19
2022-08-27T20:07:51.732Z,19.13
2022-08-27T20:10:21.619Z,19.10
2022-08-27T20:12:48.786Z,19.06
2022-08-27T20:15:15.836Z,19.03
2022-08-27T20:17:43.758Z,18.98
2022-08-27T20:20:12.045Z,18.94
2022-08-27T20:22:42.615Z,18.89
2022-08-27T20:25:10.784Z,18.84
2022-08-27T20:27:37.473Z,18.80
2022-08-27T20:30:04.956Z,18.76
2022-08-27T20:32:31.456Z,18.72
2022-08-27T20:34:58.047Z,18.69
2022-08-27T20:37:24.731Z,18.66
2022-08-27T20:39:52.671Z,18.61
2022-08-27T20:42:20.085Z,18.57
2022-08-27T20:44:46.988Z,18.54
2022-08-27T20:47:13.661Z,18.50
2022-08-27T20:49:41.536Z,18.46
2022-08-27T20:52:11.761Z,18.43
2022-08-27T20:54:38.838Z,18.38
2022-08-27T20:57:05.814Z,18.33
2022-08-27T20:59:50.892Z,18.27
2022-08-27T21:02:22.885Z,18.21
2022-08-27T21:04:49.658Z,18.16
2022-08-27T21:07:17.944Z,18.12
2022-08-27T21:09:55.991Z,18.07
2022-08-27T21:12:26.401Z,18.03
2022-08-27T21:14:55.892Z,17.99
2022-08-27T21:17:27.739Z,17.96
2022-08-27T21:19:55.214Z,17.91
2022-08-27T21:22:22.372Z,17.88
2022-08-27T21:24:49.077Z,17.84
2022-08-27T21:27:17.152Z,17.81
2022-08-27T21:29:47.272Z,17.77
2022-08-27T21:32:14.804Z,17.74
2022-08-27T21:34:41.882Z,17.71
2022-08-27T21:37:09.379Z,17.65
2022-08-27T21:39:37.844Z,17.62
2022-08-27T21:42:05.111Z,17.58
2022-08-27T21:44:31.692Z,17.56
2022-08-27T21:46:58.856Z,17.52
2022-08-27T21:49:25.370Z,17.50
2022-08-27T21:51:52.148Z,17.51
2022-08-27T21:54:18.903Z,17.55
2022-08-27T21:56:45.526Z,17.56
2022-08-27T21:59:12.015Z,17.55
2022-08-27T22:01:39.311Z,17.55
2022-08-27T22:04:06.072Z,17.53
2022-08-27T22:06:33.207Z,17.54
2022-08-27T22:09:00.271Z,17.55
2022-08-27T22:11:27.314Z,17.56
2022-08-27T22:13:58.180Z,17.58
2022-08-27T22:16:24.945Z,17.57
2022-08-27T22:18:54.904Z,17.57
2022-08-27T22:21:21.800Z,17.54
2022-08-27T22:23:51.250Z,17.50
2022-08-27T22:26:18.700Z,17.45
2022-08-27T22:28:45.329Z,17.38
2022-08-27T22:31:12.082Z,17.28
2022-08-27T22:33:38.748Z,17.22
2022-08-27T22:36:05.406Z,17.15
2022-08-27T22:38:32.079Z,17.09
2022-08-27T22:40:59.434Z,17.02
2022-08-27T22:43:27.893Z,16.95
2022-08-27T22:45:54.516Z,16.91
2022-08-27T22:48:21.221Z,16.85
2022-08-27T22:50:47.895Z,16.81
2022-08-27T22:53:14.882Z,16.74
2022-08-27T22:55:41.449Z,16.67
2022-08-27T22:58:08.087Z,16.61
2022-08-27T23:00:36.726Z,16.54
2022-08-27T23:03:06.239Z,16.49
2022-08-27T23:05:40.283Z,16.46
2022-08-27T23:08:11.003Z,16.40
2022-08-27T23:10:38.346Z,16.36
2022-08-27T23:13:06.895Z,16.33
2022-08-27T23:15:33.840Z,16.28
2022-08-27T23:18:01.521Z,16.22
2022-08-27T23:20:28.495Z,16.18
2022-08-27T23:22:55.916Z,16.12
2022-08-27T23:25:43.549Z,16.09
2022-08-27T23:28:14.870Z,16.04
2022-08-27T23:30:43.881Z,15.99
2022-08-27T23:33:11.157Z,15.95
2022-08-27T23:35:37.758Z,15.91
2022-08-27T23:38:04.977Z,15.86
2022-08-27T23:40:31.704Z,15.82
2022-08-27T23:42:58.423Z,15.77
2022-08-27T23:45:26.275Z,15.75
2022-08-27T23:47:53.385Z,15.71
2022-08-27T23:50:20.469Z,15.70
2022-08-27T23:52:49.657Z,15.69
2022-08-27T23:55:16.209Z,15.64
2022-08-27T23:57:43.385Z,15.62
